PWSweather.com
Personal Weather Stations
Station Observations
KCTCOLEB1
Sandy Brook, Colebrook, CT 06021

Sandy BrookColebrook, CT 06021

Lat: 42.0018, Lon: -73.0825

Elevation: 935

Station Type: Davis Vantage Pro2 + Solar + UV

Latest ConditionsUpdated 5:10:01 PM EDT Wednesday, Apr 1, 2015
Currently Today's Max Today's Min Today's Average
Temperature 41.7°F5.4°C 46.9°F8.3°C 24.2°F-4.3°C 33.5°F0.8°C
Dew Point 14.7°F-9.6°C 26.9°F-2.8°C 9.0°F-12.8°C 17.9°F-7.8°C
Winds 1.5 mph NE2.4 kmh NE 3.1 mph WNW5.0 kmh WNW - 0.8 mph 1.3 kmh
Wind Gusts 3.0 mph4.8 kmh 7.0 mph11.3 kmh - -
Humidity 33% 94% 23% 60%
Pressure 30.06 in1017.9 mb 30.06 in1017.9 mb 29.80 in1009.1 mb -
Hour Temp Dew Point Humidity Winds Wind Gusts Pressure Precip Precip Rate Daily Precip Total
05:10 PM 41.7°F5.4°C 14.7°F-9.6°C 33% 1.5 mph NE2.4 kmh NE 3.0 mph4.8 kmh 30.06 in1017.9 mb - 0.00 in0.0 mm 0.00 in0.0 mm
05:00 PM 41.8°F5.4°C 11.8°F-11.2°C 29% 1.7 mph N2.7 kmh N 5.0 mph8.0 kmh 30.06 in1017.9 mb - 0.00 in0.0 mm 0.00 in0.0 mm
04:50 PM 41.9°F5.5°C 12.7°F-10.7°C 30% 1.7 mph E2.7 kmh E 3.0 mph4.8 kmh 30.06 in1017.9 mb - 0.00 in0.0 mm 0.00 in0.0 mm
04:40 PM 41.9°F5.5°C 10.3°F-12.1°C 27% 2.6 mph NNW4.2 kmh NNW 4.0 mph6.4 kmh 30.05 in1017.6 mb - 0.00 in0.0 mm 0.00 in0.0 mm
04:30 PM 42.4°F5.8°C 16.0°F-8.9°C 34% 0.8 mph SW1.3 kmh SW 2.0 mph3.2 kmh 30.05 in1017.6 mb - 0.00 in0.0 mm 0.00 in0.0 mm
04:20 PM 42.5°F5.8°C 10.0°F-12.2°C 26% 1.4 mph NNW2.3 kmh NNW 3.0 mph4.8 kmh 30.05 in1017.6 mb - 0.00 in0.0 mm 0.00 in0.0 mm
04:10 PM 42.8°F6.0°C 11.9°F-11.2°C 28% 1.7 mph SE2.7 kmh SE 3.0 mph4.8 kmh 30.05 in1017.6 mb - 0.00 in0.0 mm 0.00 in0.0 mm
04:00 PM 42.8°F6.0°C 11.9°F-11.2°C 28% 1.8 mph NE2.9 kmh NE 5.0 mph8.0 kmh 30.05 in1017.6 mb - 0.00 in0.0 mm 0.00 in0.0 mm
03:50 PM 42.7°F5.9°C 10.1°F-12.2°C 26% 1.8 mph NNW2.9 kmh NNW 3.0 mph4.8 kmh 30.04 in1017.3 mb - 0.00 in0.0 mm 0.00 in0.0 mm
03:40 PM 42.9°F6.1°C 13.5°F-10.3°C 30% 3.1 mph WNW5.0 kmh WNW 3.0 mph4.8 kmh 30.04 in1017.3 mb - 0.00 in0.0 mm 0.00 in0.0 mm
03:30 PM 43.0°F6.1°C 15.2°F-9.3°C 32% 2.0 mph NW3.2 kmh NW 4.0 mph6.4 kmh 30.04 in1017.3 mb - 0.00 in0.0 mm 0.00 in0.0 mm
03:20 PM 43.2°F6.2°C 16.0°F-8.9°C 33% 0.5 mph W0.8 kmh W 3.0 mph4.8 kmh 30.04 in1017.3 mb - 0.00 in0.0 mm 0.00 in0.0 mm
03:10 PM 43.7°F6.5°C 13.5°F-10.3°C 29% 2.7 mph ESE4.3 kmh ESE 6.0 mph9.7 kmh 30.04 in1017.3 mb - 0.00 in0.0 mm 0.00 in0.0 mm
03:00 PM 44.9°F7.2°C 11.1°F-11.6°C 25% 2.1 mph NW3.4 kmh NW 3.0 mph4.8 kmh 30.04 in1017.3 mb - 0.00 in0.0 mm 0.00 in0.0 mm
02:50 PM 46.2°F7.9°C 14.0°F-10.0°C 27% 2.9 mph E4.7 kmh E 7.0 mph11.3 kmh 30.04 in1017.3 mb - 0.00 in0.0 mm 0.00 in0.0 mm
02:40 PM 46.9°F8.3°C 13.7°F-10.2°C 26% 1.9 mph NW3.1 kmh NW 3.0 mph4.8 kmh 30.04 in1017.3 mb - 0.00 in0.0 mm 0.00 in0.0 mm
02:30 PM 46.9°F8.3°C 14.6°F-9.7°C 27% 1.5 mph WNW2.4 kmh WNW 4.0 mph6.4 kmh 30.05 in1017.6 mb - 0.00 in0.0 mm 0.00 in0.0 mm
02:20 PM 46.3°F7.9°C 12.3°F-10.9°C 25% 0.8 mph E1.3 kmh E 2.0 mph3.2 kmh 30.04 in1017.3 mb - 0.00 in0.0 mm 0.00 in0.0 mm
02:10 PM 46.2°F7.9°C 14.8°F-9.6°C 28% 1.5 mph ENE2.4 kmh ENE 5.0 mph8.0 kmh 30.04 in1017.3 mb - 0.00 in0.0 mm 0.00 in0.0 mm
02:00 PM 45.7°F7.6°C 16.0°F-8.9°C 30% 2.1 mph NNW3.4 kmh NNW 3.0 mph4.8 kmh 30.04 in1017.3 mb - 0.00 in0.0 mm 0.00 in0.0 mm
01:50 PM 45.6°F7.6°C 13.5°F-10.3°C 27% 2.1 mph SW3.4 kmh SW 6.0 mph9.7 kmh 30.04 in1017.3 mb - 0.00 in0.0 mm 0.00 in0.0 mm
01:40 PM 45.5°F7.5°C 9.8°F-12.3°C 23% 2.4 mph N3.9 kmh N 3.0 mph4.8 kmh 30.04 in1017.3 mb - 0.00 in0.0 mm 0.00 in0.0 mm
01:30 PM 44.9°F7.2°C 11.1°F-11.6°C 25% 2.7 mph NNW4.3 kmh NNW 4.0 mph6.4 kmh 30.04 in1017.3 mb - 0.00 in0.0 mm 0.00 in0.0 mm
01:20 PM 44.6°F7.0°C 10.9°F-11.7°C 25% 1.8 mph NNW2.9 kmh NNW 4.0 mph6.4 kmh 30.04 in1017.3 mb - 0.00 in0.0 mm 0.00 in0.0 mm
01:10 PM 43.7°F6.5°C 12.6°F-10.8°C 28% 1.7 mph ENE2.7 kmh ENE 2.0 mph3.2 kmh 30.03 in1016.9 mb - 0.00 in0.0 mm 0.00 in0.0 mm
01:00 PM 43.1°F6.2°C 12.9°F-10.6°C 29% 2.2 mph SW3.5 kmh SW 2.0 mph3.2 kmh 30.03 in1016.9 mb - 0.00 in0.0 mm 0.00 in0.0 mm
12:50 PM 43.1°F6.2°C 12.2°F-11.0°C 28% 2.7 mph SSW4.3 kmh SSW 5.0 mph8.0 kmh 30.02 in1016.6 mb - 0.00 in0.0 mm 0.00 in0.0 mm
12:40 PM 42.5°F5.8°C 10.8°F-11.8°C 27% 1.3 mph S2.1 kmh S 2.0 mph3.2 kmh 30.02 in1016.6 mb - 0.00 in0.0 mm 0.00 in0.0 mm
12:30 PM 42.2°F5.7°C 12.2°F-11.0°C 29% 1.3 mph W2.1 kmh W 3.0 mph4.8 kmh 30.02 in1016.6 mb - 0.00 in0.0 mm 0.00 in0.0 mm
12:20 PM 42.3°F5.7°C 15.2°F-9.3°C 33% 0.6 mph WSW1.0 kmh WSW 1.0 mph1.6 kmh 30.02 in1016.6 mb - 0.00 in0.0 mm 0.00 in0.0 mm
12:10 PM 42.4°F5.8°C 9.0°F-12.8°C 25% 1.1 mph NNW1.8 kmh NNW 2.0 mph3.2 kmh 30.02 in1016.6 mb - 0.00 in0.0 mm 0.00 in0.0 mm
12:00 PM 42.7°F5.9°C 10.1°F-12.2°C 26% 2.4 mph NE3.9 kmh NE 4.0 mph6.4 kmh 30.02 in1016.6 mb - 0.00 in0.0 mm 0.00 in0.0 mm
11:50 AM 42.2°F5.7°C 15.8°F-9.0°C 34% 0.3 mph S0.5 kmh S 1.0 mph1.6 kmh 30.02 in1016.6 mb - 0.00 in0.0 mm 0.00 in0.0 mm
11:40 AM 41.5°F5.3°C 12.3°F-10.9°C 30% 1.4 mph NE2.3 kmh NE 3.0 mph4.8 kmh 30.01 in1016.3 mb - 0.00 in0.0 mm 0.00 in0.0 mm
11:30 AM 41.5°F5.3°C 13.8°F-10.1°C 32% 2.1 mph ENE3.4 kmh ENE 3.0 mph4.8 kmh 30.02 in1016.6 mb - 0.00 in0.0 mm 0.00 in0.0 mm
11:20 AM 41.1°F5.1°C 11.2°F-11.6°C 29% 1.8 mph NNW2.9 kmh NNW 3.0 mph4.8 kmh 30.02 in1016.6 mb - 0.00 in0.0 mm 0.00 in0.0 mm
11:10 AM 40.2°F4.6°C 14.1°F-9.9°C 34% 0.5 mph NW0.8 kmh NW 1.0 mph1.6 kmh 30.02 in1016.6 mb - 0.00 in0.0 mm 0.00 in0.0 mm
11:00 AM 39.5°F4.2°C 12.7°F-10.7°C 33% 0.9 mph N1.4 kmh N 2.0 mph3.2 kmh 30.02 in1016.6 mb - 0.00 in0.0 mm 0.00 in0.0 mm
10:50 AM 39.1°F3.9°C 13.0°F-10.6°C 34% 1.4 mph NE2.3 kmh NE 3.0 mph4.8 kmh 30.02 in1016.6 mb - 0.00 in0.0 mm 0.00 in0.0 mm
10:40 AM 38.7°F3.7°C 12.7°F-10.7°C 34% 2.2 mph NNW3.5 kmh NNW 4.0 mph6.4 kmh 30.02 in1016.6 mb - 0.00 in0.0 mm 0.00 in0.0 mm
10:30 AM 37.5°F3.1°C 12.9°F-10.6°C 36% 1.2 mph N1.9 kmh N 2.0 mph3.2 kmh 30.01 in1016.3 mb - 0.00 in0.0 mm 0.00 in0.0 mm
10:20 AM 36.5°F2.5°C 12.1°F-11.1°C 36% 1.8 mph NNW2.9 kmh NNW 4.0 mph6.4 kmh 30.02 in1016.6 mb - 0.00 in0.0 mm 0.00 in0.0 mm
10:10 AM 35.7°F2.1°C 13.7°F-10.2°C 40% 1.1 mph NW1.8 kmh NW 2.0 mph3.2 kmh 30.02 in1016.6 mb - 0.00 in0.0 mm 0.00 in0.0 mm
10:00 AM 34.8°F1.6°C 14.0°F-10.0°C 42% 0.3 mph NE0.5 kmh NE 1.0 mph1.6 kmh 30.01 in1016.3 mb - 0.00 in0.0 mm 0.00 in0.0 mm
09:50 AM 34.4°F1.3°C 13.1°F-10.5°C 41% 0.6 mph WSW1.0 kmh WSW 1.0 mph1.6 kmh 30.01 in1016.3 mb - 0.00 in0.0 mm 0.00 in0.0 mm
09:40 AM 33.7°F0.9°C 14.1°F-9.9°C 44% 0.6 mph SSE1.0 kmh SSE 1.0 mph1.6 kmh 30.01 in1016.3 mb - 0.00 in0.0 mm 0.00 in0.0 mm
09:30 AM 33.2°F0.7°C 12.6°F-10.8°C 42% 0.7 mph NNE1.1 kmh NNE 1.0 mph1.6 kmh 30.01 in1016.3 mb - 0.00 in0.0 mm 0.00 in0.0 mm
09:20 AM 32.7°F0.4°C 12.6°F-10.8°C 43% 0.8 mph S1.3 kmh S 3.0 mph4.8 kmh 30.00 in1015.9 mb - 0.00 in0.0 mm 0.00 in0.0 mm
09:10 AM 31.9°F-0.1°C 12.4°F-10.9°C 44% 0.7 mph S1.1 kmh S 2.0 mph3.2 kmh 30.00 in1015.9 mb - 0.00 in0.0 mm 0.00 in0.0 mm
09:00 AM 31.2°F-0.4°C 15.1°F-9.4°C 51% 1.0 mph NE1.6 kmh NE 3.0 mph4.8 kmh 30.00 in1015.9 mb - 0.00 in0.0 mm 0.00 in0.0 mm
08:50 AM 30.4°F-0.9°C 14.9°F-9.5°C 52% 0.9 mph SE1.4 kmh SE 2.0 mph3.2 kmh 30.00 in1015.9 mb - 0.00 in0.0 mm 0.00 in0.0 mm
08:40 AM 29.8°F-1.2°C 15.6°F-9.1°C 55% 0.7 mph S1.1 kmh S 1.0 mph1.6 kmh 30.00 in1015.9 mb - 0.00 in0.0 mm 0.00 in0.0 mm
08:30 AM 29.0°F-1.7°C 18.3°F-7.6°C 64% 0.1 mph N0.2 kmh N 1.0 mph1.6 kmh 30.00 in1015.9 mb - 0.00 in0.0 mm 0.00 in0.0 mm
08:20 AM 28.0°F-2.2°C 17.4°F-8.1°C 64% 0.1 mph NNW0.2 kmh NNW 1.0 mph1.6 kmh 29.99 in1015.6 mb - 0.00 in0.0 mm 0.00 in0.0 mm
08:10 AM 27.2°F-2.7°C 17.7°F-7.9°C 67% 0.3 mph N0.5 kmh N 1.0 mph1.6 kmh 29.99 in1015.6 mb - 0.00 in0.0 mm 0.00 in0.0 mm
08:00 AM 26.1°F-3.3°C 19.0°F-7.2°C 74% Calm Calm -- 29.98 in1015.2 mb - 0.00 in0.0 mm 0.00 in0.0 mm
07:50 AM 25.4°F-3.7°C 18.2°F-7.7°C 74% Calm Calm -- 29.98 in1015.2 mb - 0.00 in0.0 mm 0.00 in0.0 mm
07:40 AM 24.7°F-4.1°C 18.5°F-7.5°C 77% Calm Calm -- 29.97 in1014.9 mb - 0.00 in0.0 mm 0.00 in0.0 mm
07:30 AM 24.4°F-4.2°C 19.1°F-7.2°C 80% Calm Calm -- 29.97 in1014.9 mb - 0.00 in0.0 mm 0.00 in0.0 mm
07:20 AM 24.2°F-4.3°C 19.2°F-7.1°C 81% Calm Calm -- 29.97 in1014.9 mb - 0.00 in0.0 mm 0.00 in0.0 mm
07:10 AM 24.2°F-4.3°C 18.6°F-7.4°C 79% Calm Calm -- 29.96 in1014.6 mb - 0.00 in0.0 mm 0.00 in0.0 mm
07:00 AM 24.2°F-4.3°C 18.6°F-7.4°C 79% Calm Calm -- 29.95 in1014.2 mb - 0.00 in0.0 mm 0.00 in0.0 mm
06:50 AM 24.3°F-4.3°C 18.7°F-7.4°C 79% Calm Calm -- 29.95 in1014.2 mb - 0.00 in0.0 mm 0.00 in0.0 mm
06:40 AM 24.3°F-4.3°C 18.7°F-7.4°C 79% Calm Calm -- 29.95 in1014.2 mb - 0.00 in0.0 mm 0.00 in0.0 mm
06:30 AM 24.5°F-4.2°C 18.6°F-7.4°C 78% Calm Calm -- 29.94 in1013.9 mb - 0.00 in0.0 mm 0.00 in0.0 mm
06:20 AM 24.6°F-4.1°C 19.0°F-7.2°C 79% Calm Calm -- 29.94 in1013.9 mb - 0.00 in0.0 mm 0.00 in0.0 mm
06:10 AM 24.8°F-4.0°C 19.7°F-6.8°C 81% Calm Calm -- 29.93 in1013.5 mb - 0.00 in0.0 mm 0.00 in0.0 mm
06:00 AM 24.9°F-3.9°C 20.5°F-6.4°C 83% Calm Calm -- 29.92 in1013.2 mb - 0.00 in0.0 mm 0.00 in0.0 mm
05:50 AM 25.1°F-3.8°C 21.8°F-5.7°C 87% Calm Calm -- 29.92 in1013.2 mb - 0.00 in0.0 mm 0.00 in0.0 mm
05:40 AM 25.3°F-3.7°C 22.2°F-5.4°C 88% Calm Calm -- 29.91 in1012.9 mb - 0.00 in0.0 mm 0.00 in0.0 mm
05:30 AM 25.4°F-3.7°C 22.6°F-5.2°C 89% Calm Calm -- 29.90 in1012.5 mb - 0.00 in0.0 mm 0.00 in0.0 mm
05:20 AM 25.5°F-3.6°C 22.7°F-5.2°C 89% Calm Calm -- 29.89 in1012.2 mb - 0.00 in0.0 mm 0.00 in0.0 mm
05:10 AM 25.5°F-3.6°C 23.0°F-5.0°C 90% Calm Calm -- 29.89 in1012.2 mb - 0.00 in0.0 mm 0.00 in0.0 mm
05:00 AM 25.5°F-3.6°C 23.2°F-4.9°C 91% Calm Calm -- 29.88 in1011.9 mb - 0.00 in0.0 mm 0.00 in0.0 mm
04:50 AM 25.4°F-3.7°C 23.2°F-4.9°C 91% Calm Calm -- 29.88 in1011.9 mb - 0.00 in0.0 mm 0.00 in0.0 mm
04:40 AM 25.4°F-3.7°C 23.4°F-4.8°C 92% Calm Calm -- 29.87 in1011.5 mb - 0.00 in0.0 mm 0.00 in0.0 mm
04:30 AM 25.4°F-3.7°C 23.6°F-4.7°C 93% Calm Calm -- 29.86 in1011.2 mb - 0.00 in0.0 mm 0.00 in0.0 mm
04:20 AM 25.3°F-3.7°C 23.6°F-4.7°C 93% Calm Calm -- 29.86 in1011.2 mb - 0.00 in0.0 mm 0.00 in0.0 mm
04:10 AM 25.3°F-3.7°C 23.6°F-4.7°C 93% Calm Calm -- 29.86 in1011.2 mb - 0.00 in0.0 mm 0.00 in0.0 mm
04:00 AM 25.4°F-3.7°C 23.7°F-4.6°C 93% Calm Calm -- 29.86 in1011.2 mb - 0.00 in0.0 mm 0.00 in0.0 mm
03:50 AM 25.6°F-3.6°C 23.8°F-4.6°C 93% Calm Calm -- 29.85 in1010.8 mb - 0.00 in0.0 mm 0.00 in0.0 mm
03:40 AM 25.7°F-3.5°C 24.0°F-4.4°C 93% Calm Calm -- 29.85 in1010.8 mb - 0.00 in0.0 mm 0.00 in0.0 mm
03:30 AM 25.8°F-3.4°C 24.1°F-4.4°C 93% Calm Calm -- 29.84 in1010.5 mb - 0.00 in0.0 mm 0.00 in0.0 mm
03:20 AM 25.9°F-3.4°C 24.2°F-4.3°C 93% Calm Calm -- 29.84 in1010.5 mb - 0.00 in0.0 mm 0.00 in0.0 mm
03:10 AM 26.0°F-3.3°C 24.3°F-4.3°C 93% Calm Calm -- 29.83 in1010.2 mb - 0.00 in0.0 mm 0.00 in0.0 mm
03:00 AM 26.1°F-3.3°C 24.4°F-4.2°C 93% Calm Calm -- 29.83 in1010.2 mb - 0.00 in0.0 mm 0.00 in0.0 mm
02:50 AM 26.2°F-3.2°C 24.5°F-4.2°C 93% Calm Calm -- 29.82 in1009.8 mb - 0.00 in0.0 mm 0.00 in0.0 mm
02:40 AM 26.4°F-3.1°C 24.7°F-4.1°C 93% Calm Calm -- 29.82 in1009.8 mb - 0.00 in0.0 mm 0.00 in0.0 mm
02:30 AM 26.7°F-2.9°C 24.9°F-3.9°C 93% Calm Calm -- 29.82 in1009.8 mb - 0.00 in0.0 mm 0.00 in0.0 mm
02:20 AM 26.8°F-2.9°C 25.1°F-3.8°C 93% Calm Calm -- 29.82 in1009.8 mb - 0.00 in0.0 mm 0.00 in0.0 mm
02:10 AM 27.0°F-2.8°C 25.5°F-3.6°C 94% Calm Calm -- 29.82 in1009.8 mb - 0.00 in0.0 mm 0.00 in0.0 mm
02:00 AM 27.1°F-2.7°C 25.6°F-3.6°C 94% Calm Calm -- 29.81 in1009.5 mb - 0.00 in0.0 mm 0.00 in0.0 mm
01:50 AM 27.2°F-2.7°C 25.7°F-3.5°C 94% Calm Calm -- 29.81 in1009.5 mb - 0.00 in0.0 mm 0.00 in0.0 mm
01:40 AM 27.3°F-2.6°C 25.8°F-3.4°C 94% Calm Calm -- 29.81 in1009.5 mb - 0.00 in0.0 mm 0.00 in0.0 mm
01:30 AM 27.4°F-2.6°C 25.9°F-3.4°C 94% Calm Calm -- 29.81 in1009.5 mb - 0.00 in0.0 mm 0.00 in0.0 mm
01:20 AM 27.5°F-2.5°C 25.8°F-3.4°C 93% Calm Calm -- 29.81 in1009.5 mb - 0.00 in0.0 mm 0.00 in0.0 mm
01:10 AM 27.7°F-2.4°C 26.2°F-3.2°C 94% Calm Calm -- 29.80 in1009.1 mb - 0.00 in0.0 mm 0.00 in0.0 mm
01:00 AM 27.9°F-2.3°C 26.4°F-3.1°C 94% Calm Calm -- 29.80 in1009.1 mb - 0.00 in0.0 mm 0.00 in0.0 mm
12:50 AM 28.0°F-2.2°C 26.5°F-3.1°C 94% Calm Calm -- 29.80 in1009.1 mb - 0.00 in0.0 mm 0.00 in0.0 mm
12:40 AM 28.1°F-2.2°C 26.6°F-3.0°C 94% Calm Calm -- 29.80 in1009.1 mb - 0.00 in0.0 mm 0.00 in0.0 mm
12:30 AM 28.2°F-2.1°C 26.7°F-2.9°C 94% Calm Calm -- 29.80 in1009.1 mb - 0.00 in0.0 mm 0.00 in0.0 mm
12:20 AM 28.3°F-2.1°C 26.5°F-3.1°C 93% Calm Calm -- 29.80 in1009.1 mb - 0.00 in0.0 mm 0.00 in0.0 mm
12:10 AM 28.5°F-1.9°C 26.7°F-2.9°C 93% Calm Calm -- 29.80 in1009.1 mb - 0.00 in0.0 mm 0.00 in0.0 mm
12:00 AM 28.6°F-1.9°C 26.9°F-2.8°C 93% Calm Calm -- 29.80 in1009.1 mb - 0.00 in0.0 mm 0.00 in0.0 mm